< < Back
Terminal Aerodrome Forecast


Current Version              Previous Versions:   1  2  3  4  5  6  7  8  9  

Terminal Aerodrome Forecast

463
FTUS42 KFFC 010000 AAA
TAFPDK
TAF AMD
KPDK 010055Z 0101/0124 31010G19KT P6SM VCSH SCT015 BKN025
     FM011000 33016G28KT P6SM BKN025
     FM011600 32019G33KT P6SM BKN040
     FM012000 32018G30KT P6SM SCT040=

Latest METAR

052
SAUS70 KWBC 010600 RRX
MTRPDK
METAR KPDK 010553Z 30011G17KT 10SM OVC032 03/M02 A2994 RMK AO2 SNB19E28
SLP144 P0000 60004 T00331022 10106 20028 58011


USA.gov is the U.S. government's official web portal to all federal, state and local government web resources and services.